Capt Eddie — WDC3053 — position and weather

sailwx.info

Track history (hours):
 
Tides and Currents Weather Stations Pressure Air Temp Water Temp Dewpoint Dewpoint Depression Visibility Wind Speed Wind Dir Waves Ship Positions

Capt Eddie

Owner: CENTRAL BOAT RENTALS, BERWICK, LA. More information available from US FCC via Universal Licensing System and Coast Guard Vessel Documentation Center.

Last reported at 2018-Apr-19 22:42 UTC. Time now 2018-Apr-20 05:01 UTC.
Position N 29°32' W 090°50'.

Length 20 m; draft 2 m.

Type: Tug. MMSI: 367002050.

Date/timePositionNaut miles runAvg speedWind from/ knotsBaromVisibWave heightAir tempDewpointWater temp
2018-Apr-19 22:42N 29°32' W 090°50'1 5.3
2018-Apr-19 22:26N 29°32' W 090°49'2 5.0
2018-Apr-19 21:58N 29°32' W 090°46'2 4.8
2018-Apr-19 21:31N 29°34' W 090°44'1 2.9
2018-Apr-19 21:01N 29°34' W 090°43'2 4.9
2018-Apr-19 20:30N 29°31' W 090°42'3 5.2
2018-Apr-19 20:00N 29°29' W 090°43'3 5.2
2018-Apr-19 19:30N 29°26' W 090°43'3 0.3
2018-Apr-19 07:21N 29°23' W 090°44'2 6.3
2018-Apr-19 06:59N 29°25' W 090°43'4 8.2
2018-Apr-19 06:30N 29°29' W 090°43'4 8.0
2018-Apr-19 06:00N 29°33' W 090°42'3 5.5
2018-Apr-19 05:30N 29°36' W 090°43'2 3.8
2018-Apr-19 05:00N 29°36' W 090°41'3 5.9
2018-Apr-19 04:31N 29°35' W 090°38'3 6.3
2018-Apr-19 04:00N 29°34' W 090°34'2 0.1
2018-Apr-18 12:38N 29°34' W 090°32'1 4.3
2018-Apr-18 12:30N 29°34' W 090°32'3 6.6
2018-Apr-18 12:00N 29°35' W 090°36'3 6.1
2018-Apr-18 11:29N 29°36' W 090°39'1 1.8
2018-Apr-18 10:59N 29°36' W 090°40'2 3.3
2018-Apr-18 10:30N 29°37' W 090°42'3 5.4
2018-Apr-18 09:59N 29°34' W 090°43'0 0.0
2018-Apr-18 09:29N 29°34' W 090°43'0 0.3
2018-Apr-18 09:00N 29°34' W 090°43'3 5.3
2018-Apr-18 08:30N 29°31' W 090°42'3 5.4
2018-Apr-18 08:00N 29°29' W 090°43'2 3.8
2018-Apr-18 07:30N 29°27' W 090°43'  
Track history (hours):
 
Tides and Currents Weather Stations Pressure Air Temp Water Temp Dewpoint Dewpoint Depression Visibility Wind Speed Wind Dir Waves Ship Positions

Capt Eddie

Owner: CENTRAL BOAT RENTALS, BERWICK, LA. More information available from US FCC via Universal Licensing System and Coast Guard Vessel Documentation Center.

Last reported at 2018-Apr-19 22:42 UTC. Time now 2018-Apr-20 05:01 UTC.
Position N 29°32' W 090°50'.

Length 20 m; draft 2 m.

Type: Tug. MMSI: 367002050.

Date/timePositionNaut miles runAvg speedWind from/ knotsBaromVisibWave heightAir tempDewpointWater temp
2018-Apr-19 22:42N 29°32' W 090°50'1 5.3
2018-Apr-19 22:26N 29°32' W 090°49'2 5.0
2018-Apr-19 21:58N 29°32' W 090°46'2 4.8
2018-Apr-19 21:31N 29°34' W 090°44'1 2.9
2018-Apr-19 21:01N 29°34' W 090°43'2 4.9
2018-Apr-19 20:30N 29°31' W 090°42'3 5.2
2018-Apr-19 20:00N 29°29' W 090°43'3 5.2
2018-Apr-19 19:30N 29°26' W 090°43'3 0.3
2018-Apr-19 07:21N 29°23' W 090°44'2 6.3
2018-Apr-19 06:59N 29°25' W 090°43'4 8.2
2018-Apr-19 06:30N 29°29' W 090°43'4 8.0
2018-Apr-19 06:00N 29°33' W 090°42'3 5.5
2018-Apr-19 05:30N 29°36' W 090°43'2 3.8
2018-Apr-19 05:00N 29°36' W 090°41'3 5.9
2018-Apr-19 04:31N 29°35' W 090°38'3 6.3
2018-Apr-19 04:00N 29°34' W 090°34'2 0.1
2018-Apr-18 12:38N 29°34' W 090°32'1 4.3
2018-Apr-18 12:30N 29°34' W 090°32'3 6.6
2018-Apr-18 12:00N 29°35' W 090°36'3 6.1
2018-Apr-18 11:29N 29°36' W 090°39'1 1.8
2018-Apr-18 10:59N 29°36' W 090°40'2 3.3
2018-Apr-18 10:30N 29°37' W 090°42'3 5.4
2018-Apr-18 09:59N 29°34' W 090°43'0 0.0
2018-Apr-18 09:29N 29°34' W 090°43'0 0.3
2018-Apr-18 09:00N 29°34' W 090°43'3 5.3
2018-Apr-18 08:30N 29°31' W 090°42'3 5.4
2018-Apr-18 08:00N 29°29' W 090°43'2 3.8
2018-Apr-18 07:30N 29°27' W 090°43'  

Dump ship's entire track history